createdAt,value
2018-06-05T00:00:18.243Z,9.00
2018-06-05T00:02:46.467Z,8.30
2018-06-05T00:05:14.830Z,9.20
2018-06-05T00:07:43.054Z,8.80
2018-06-05T00:10:11.199Z,8.87
2018-06-05T00:12:39.385Z,9.70
2018-06-05T00:15:07.688Z,10.03
2018-06-05T00:17:36.360Z,14.47
2018-06-05T00:20:04.790Z,9.80
2018-06-05T00:22:32.900Z,9.70
2018-06-05T00:25:01.039Z,10.33
2018-06-05T00:27:29.366Z,9.93
2018-06-05T00:29:57.666Z,9.30
2018-06-05T00:32:25.802Z,9.23
2018-06-05T00:34:53.898Z,10.05
2018-06-05T00:37:21.999Z,10.57
2018-06-05T00:39:50.891Z,9.23
2018-06-05T00:42:18.986Z,9.20
2018-06-05T00:44:47.126Z,9.75
2018-06-05T00:47:15.383Z,10.17
2018-06-05T00:49:43.508Z,9.97
2018-06-05T00:52:11.634Z,10.67
2018-06-05T00:54:40.051Z,20.30
2018-06-05T00:57:08.604Z,11.03
2018-06-05T00:59:36.715Z,10.97
2018-06-05T01:02:04.815Z,11.50
2018-06-05T01:04:32.962Z,10.90
2018-06-05T01:07:01.286Z,11.00
2018-06-05T01:09:29.363Z,10.87
2018-06-05T01:11:57.447Z,11.57
2018-06-05T01:14:25.510Z,12.68
2018-06-05T01:16:53.627Z,11.63
2018-06-05T01:19:22.025Z,10.73
2018-06-05T01:21:50.212Z,11.60
2018-06-05T01:24:19.258Z,11.70
2018-06-05T01:26:47.360Z,11.90
2018-06-05T01:29:15.550Z,12.00
2018-06-05T01:31:43.721Z,12.27
2018-06-05T01:34:12.645Z,12.60
2018-06-05T01:36:40.720Z,12.80
2018-06-05T01:39:09.625Z,12.20
2018-06-05T01:41:38.203Z,12.80
2018-06-05T01:44:06.417Z,12.63
2018-06-05T01:46:34.515Z,12.10
2018-06-05T01:49:02.636Z,12.27
2018-06-05T01:51:30.875Z,12.63
2018-06-05T01:53:58.998Z,12.80
2018-06-05T01:56:28.184Z,14.20
2018-06-05T01:58:56.278Z,13.27
2018-06-05T02:01:24.371Z,13.83
2018-06-05T02:03:52.474Z,13.23
2018-06-05T02:06:20.692Z,13.60
2018-06-05T02:08:48.769Z,14.43
2018-06-05T02:11:17.519Z,14.20
2018-06-05T02:13:45.625Z,14.90
2018-06-05T02:16:13.714Z,14.00
2018-06-05T02:18:42.358Z,15.00
2018-06-05T02:21:10.486Z,14.97
2018-06-05T02:23:38.595Z,15.27
2018-06-05T02:26:06.749Z,15.53
2018-06-05T02:28:34.938Z,14.87
2018-06-05T02:31:03.018Z,15.93
2018-06-05T02:33:31.100Z,15.97
2018-06-05T02:35:59.493Z,16.27
2018-06-05T02:38:27.672Z,15.60
2018-06-05T02:40:55.753Z,14.70
2018-06-05T02:43:23.910Z,15.90
2018-06-05T02:45:51.986Z,17.03
2018-06-05T02:48:20.088Z,15.30
2018-06-05T02:50:48.193Z,15.98
2018-06-05T02:53:16.300Z,16.80
2018-06-05T02:55:44.374Z,16.43
2018-06-05T02:58:12.531Z,17.00
2018-06-05T03:00:40.930Z,16.43
2018-06-05T03:03:09.047Z,17.00
2018-06-05T03:05:37.394Z,16.13
2018-06-05T03:08:05.500Z,17.53
2018-06-05T03:10:33.593Z,16.85
2018-06-05T03:13:02.202Z,18.17
2018-06-05T03:15:30.599Z,18.00
2018-06-05T03:17:58.706Z,18.20
2018-06-05T03:20:27.293Z,19.30
2018-06-05T03:22:55.433Z,17.60
2018-06-05T03:25:23.539Z,19.03
2018-06-05T03:27:51.682Z,18.97
2018-06-05T03:30:19.774Z,19.42
2018-06-05T03:32:47.869Z,19.20
2018-06-05T03:35:15.950Z,19.07
2018-06-05T03:37:44.043Z,18.10
2018-06-05T03:40:12.148Z,17.47
2018-06-05T03:42:40.351Z,18.83
2018-06-05T03:45:08.471Z,18.83
2018-06-05T03:47:36.602Z,18.30
2018-06-05T03:50:05.367Z,18.47
2018-06-05T03:52:33.535Z,18.70
2018-06-05T03:55:01.812Z,18.92
2018-06-05T03:57:29.896Z,19.30
2018-06-05T03:59:58.014Z,18.65
2018-06-05T04:02:26.185Z,16.13
2018-06-05T04:04:54.281Z,17.27
2018-06-05T04:07:22.424Z,21.00
2018-06-05T04:09:50.525Z,17.93
2018-06-05T04:12:18.597Z,17.20
2018-06-05T04:14:46.730Z,17.60
2018-06-05T04:17:14.830Z,17.10
2018-06-05T04:19:42.935Z,18.30
2018-06-05T04:22:11.001Z,18.27
2018-06-05T04:24:39.109Z,17.90
2018-06-05T04:27:07.207Z,17.37
2018-06-05T04:29:35.285Z,18.07
2018-06-05T04:32:11.355Z,17.90
2018-06-05T04:34:43.744Z,17.17
2018-06-05T04:37:14.766Z,17.50
2018-06-05T04:39:42.920Z,18.23
2018-06-05T04:44:48.675Z,18.17
2018-06-05T04:47:16.845Z,18.10
2018-06-05T04:49:44.987Z,19.53
2018-06-05T04:52:13.177Z,18.30
2018-06-05T04:54:41.262Z,18.10
2018-06-05T04:57:09.938Z,17.83
2018-06-05T04:59:38.037Z,17.50
2018-06-05T05:02:06.210Z,17.50
2018-06-05T05:04:34.535Z,16.77
2018-06-05T05:07:02.651Z,16.00
2018-06-05T05:09:30.743Z,16.73
2018-06-05T05:12:00.554Z,16.32
2018-06-05T05:14:28.651Z,17.80
2018-06-05T05:16:56.807Z,17.25
2018-06-05T05:19:24.930Z,17.57
2018-06-05T05:21:53.103Z,14.63
2018-06-05T05:24:21.292Z,16.50
2018-06-05T05:26:49.379Z,15.60
2018-06-05T05:29:17.467Z,17.57
2018-06-05T05:31:44.657Z,16.90
2018-06-05T05:34:20.662Z,14.90
2018-06-05T05:36:49.086Z,16.45
2018-06-05T05:39:17.182Z,14.93
2018-06-05T05:41:45.254Z,15.30
2018-06-05T05:44:13.414Z,15.23
2018-06-05T05:46:41.499Z,18.10
2018-06-05T05:49:09.609Z,14.50
2018-06-05T05:51:37.678Z,17.77
2018-06-05T05:54:05.794Z,18.10
2018-06-05T05:56:34.083Z,16.10
2018-06-05T05:59:02.170Z,15.30
2018-06-05T06:01:30.321Z,16.43
2018-06-05T06:03:58.410Z,13.22
2018-06-05T06:06:28.050Z,15.80
2018-06-05T06:08:56.121Z,15.30
2018-06-05T06:11:24.184Z,16.45
2018-06-05T06:13:52.244Z,16.50
2018-06-05T06:16:21.111Z,18.35
2018-06-05T06:18:49.174Z,15.63
2018-06-05T06:21:17.273Z,16.90
2018-06-05T06:23:45.327Z,15.87
2018-06-05T06:26:13.668Z,15.50
2018-06-05T06:28:41.968Z,15.73
2018-06-05T06:31:10.220Z,16.07
2018-06-05T06:33:38.673Z,15.63
2018-06-05T06:36:06.815Z,15.40
2018-06-05T06:38:34.956Z,15.87
2018-06-05T06:41:03.091Z,12.97
2018-06-05T06:43:31.173Z,14.37
2018-06-05T06:45:59.384Z,14.50
2018-06-05T06:48:27.510Z,14.50
2018-06-05T06:50:55.682Z,14.43
2018-06-05T06:53:23.781Z,15.03
2018-06-05T06:55:52.042Z,14.58
2018-06-05T06:58:20.130Z,14.95
2018-06-05T07:00:48.296Z,15.50
2018-06-05T07:03:16.410Z,15.10
2018-06-05T07:05:44.828Z,14.17
2018-06-05T07:08:12.970Z,16.50
2018-06-05T07:10:41.046Z,15.83
2018-06-05T07:13:09.141Z,13.00
2018-06-05T07:15:37.478Z,14.07
2018-06-05T07:18:05.583Z,14.27
2018-06-05T07:20:33.658Z,13.17
2018-06-05T07:23:01.786Z,14.90
2018-06-05T07:25:29.875Z,12.40
2018-06-05T07:27:58.022Z,13.17
2018-06-05T07:30:26.100Z,13.63
2018-06-05T07:32:54.174Z,13.22
2018-06-05T07:35:22.255Z,14.55
2018-06-05T07:37:50.358Z,13.83
2018-06-05T07:40:18.607Z,13.10
2018-06-05T07:42:46.683Z,13.77
2018-06-05T07:45:15.603Z,13.70
2018-06-05T07:47:43.678Z,12.70
2018-06-05T07:50:11.799Z,13.70
2018-06-05T07:52:39.902Z,12.80
2018-06-05T07:55:07.995Z,13.80
2018-06-05T07:57:36.096Z,13.60
2018-06-05T08:00:04.448Z,13.53
2018-06-05T08:02:32.870Z,13.50
2018-06-05T08:05:01.054Z,13.30
2018-06-05T08:07:29.145Z,13.40
2018-06-05T08:09:57.235Z,14.78
2018-06-05T08:12:25.351Z,12.37
2018-06-05T08:14:53.650Z,12.30
2018-06-05T08:17:21.751Z,14.17
2018-06-05T08:19:49.802Z,12.75
2018-06-05T08:22:17.905Z,14.23
2018-06-05T08:24:46.404Z,12.40
2018-06-05T08:27:15.379Z,12.55
2018-06-05T08:29:43.562Z,13.87
2018-06-05T08:32:16.610Z,13.73
2018-06-05T08:34:45.454Z,13.90
2018-06-05T08:37:14.806Z,13.47
2018-06-05T08:39:43.362Z,14.77
2018-06-05T08:42:11.419Z,14.30
2018-06-05T08:44:39.489Z,13.85
2018-06-05T08:47:07.615Z,14.30
2018-06-05T08:49:35.699Z,11.90
2018-06-05T08:52:03.972Z,12.67
2018-06-05T08:54:32.279Z,13.97
2018-06-05T08:57:00.412Z,13.60
2018-06-05T08:59:28.480Z,14.70
2018-06-05T09:01:56.571Z,13.17
2018-06-05T09:04:24.937Z,12.83
2018-06-05T09:06:53.033Z,13.37
2018-06-05T09:09:21.435Z,13.93
2018-06-05T09:11:49.470Z,14.15
2018-06-05T09:14:17.616Z,13.30
2018-06-05T09:16:46.124Z,14.77
2018-06-05T09:19:15.019Z,13.90
2018-06-05T09:21:43.083Z,12.17
2018-06-05T09:24:11.157Z,14.50
2018-06-05T09:26:39.206Z,14.63
2018-06-05T09:29:07.323Z,9.57
2018-06-05T09:31:35.884Z,12.50
2018-06-05T09:34:04.362Z,12.57
2018-06-05T09:36:32.839Z,14.80
2018-06-05T09:39:01.294Z,12.28
2018-06-05T09:41:29.484Z,11.10
2018-06-05T09:43:57.659Z,12.47
2018-06-05T09:46:25.730Z,10.43
2018-06-05T09:48:54.069Z,9.80
2018-06-05T09:51:22.135Z,10.17
2018-06-05T09:53:50.206Z,11.23
2018-06-05T09:56:18.306Z,13.20
2018-06-05T09:58:46.559Z,9.63
2018-06-05T10:05:46.258Z,10.63
2018-06-05T10:08:14.334Z,11.90
2018-06-05T10:10:42.413Z,10.10
2018-06-05T10:13:11.324Z,13.03
2018-06-05T10:15:39.428Z,9.37
2018-06-05T10:18:07.531Z,9.30
2018-06-05T10:20:35.656Z,10.07
2018-06-05T10:23:04.097Z,9.20
2018-06-05T10:25:32.262Z,9.20
2018-06-05T10:28:00.416Z,9.20
2018-06-05T10:30:28.520Z,10.13
2018-06-05T10:32:57.295Z,10.27
2018-06-05T10:35:25.530Z,9.80
2018-06-05T10:37:54.377Z,9.70
2018-06-05T10:40:22.505Z,9.20
2018-06-05T10:42:50.663Z,10.15
2018-06-05T10:45:18.808Z,10.20
2018-06-05T10:47:46.907Z,9.90
2018-06-05T10:50:18.370Z,9.45
2018-06-05T10:52:46.931Z,10.18
2018-06-05T10:55:16.003Z,9.80
2018-06-05T10:57:44.079Z,10.00
2018-06-05T11:00:12.236Z,9.37
2018-06-05T11:02:40.483Z,8.63
2018-06-05T11:05:08.589Z,8.20
2018-06-05T11:07:36.670Z,9.07
2018-06-05T11:10:04.747Z,7.90
2018-06-05T11:12:33.304Z,8.15
2018-06-05T11:15:01.454Z,7.00
2018-06-05T11:17:29.568Z,8.15
2018-06-05T11:19:57.981Z,7.87
2018-06-05T11:22:26.126Z,9.40
2018-06-05T11:24:54.250Z,7.65
2018-06-05T11:27:22.358Z,7.70
2018-06-05T11:29:50.542Z,7.12
2018-06-05T11:32:18.950Z,7.90
2018-06-05T11:34:47.245Z,6.80
2018-06-05T11:37:16.758Z,6.97
2018-06-05T11:39:45.168Z,6.90
2018-06-05T11:42:13.369Z,6.77
2018-06-05T11:44:41.447Z,6.70
2018-06-05T11:47:09.653Z,6.70
2018-06-05T11:49:37.717Z,7.33
2018-06-05T11:52:05.764Z,6.87
2018-06-05T11:54:33.828Z,7.87
2018-06-05T11:57:01.884Z,8.60
2018-06-05T11:59:29.997Z,6.93
2018-06-05T12:01:58.207Z,6.97
2018-06-05T12:04:26.275Z,7.55
2018-06-05T12:06:54.512Z,6.20
2018-06-05T12:09:22.615Z,6.53
2018-06-05T12:11:50.699Z,5.50
2018-06-05T12:14:18.755Z,5.03
2018-06-05T12:16:46.909Z,5.73
2018-06-05T12:19:15.904Z,5.37
2018-06-05T12:21:44.622Z,6.28
2018-06-05T12:24:13.214Z,5.43
2018-06-05T12:26:41.378Z,5.40
2018-06-05T12:29:09.471Z,5.67
2018-06-05T12:31:37.555Z,6.15
2018-06-05T12:34:06.071Z,5.33
2018-06-05T12:36:34.716Z,5.23
2018-06-05T12:39:03.360Z,5.42
2018-06-05T12:41:31.757Z,5.35
2018-06-05T12:44:00.392Z,4.75
2018-06-05T12:46:28.506Z,5.40
2018-06-05T12:48:56.611Z,5.33
2018-06-05T12:51:25.146Z,4.67
2018-06-05T12:53:53.334Z,4.80
2018-06-05T12:56:21.435Z,4.80
2018-06-05T12:58:49.529Z,5.25
2018-06-05T13:01:17.729Z,4.50
2018-06-05T13:03:46.575Z,4.92
2018-06-05T13:06:14.650Z,4.70
2018-06-05T13:08:42.971Z,4.60
2018-06-05T13:11:11.038Z,4.60
2018-06-05T13:13:39.115Z,4.05
2018-06-05T13:16:07.214Z,4.50
2018-06-05T13:18:35.318Z,4.90
2018-06-05T13:21:04.239Z,4.80
2018-06-05T13:23:32.435Z,4.40
2018-06-05T13:26:00.608Z,4.75
2018-06-05T13:28:28.742Z,4.58
2018-06-05T13:30:57.374Z,4.23
2018-06-05T13:33:26.192Z,4.05
2018-06-05T13:35:54.670Z,4.23
2018-06-05T13:38:22.793Z,4.40
2018-06-05T13:40:50.924Z,3.60
2018-06-05T13:43:19.035Z,4.45
2018-06-05T13:45:47.164Z,4.08
2018-06-05T13:48:15.508Z,4.83
2018-06-05T13:50:43.684Z,4.03
2018-06-05T13:53:11.956Z,3.83
2018-06-05T13:55:40.111Z,3.72
2018-06-05T13:58:08.393Z,4.08
2018-06-05T14:00:36.532Z,5.67
2018-06-05T14:03:04.696Z,4.40
2018-06-05T14:05:33.007Z,4.28
2018-06-05T14:08:01.155Z,4.37
2018-06-05T14:10:29.352Z,4.00
2018-06-05T14:12:57.554Z,3.83
2018-06-05T14:15:25.646Z,3.93
2018-06-05T14:17:53.883Z,3.75
2018-06-05T14:20:21.952Z,4.00
2018-06-05T14:22:50.208Z,4.42
2018-06-05T14:25:18.655Z,6.62
2018-06-05T14:27:46.824Z,3.90
2018-06-05T14:30:15.255Z,3.92
2018-06-05T14:32:43.417Z,3.83
2018-06-05T14:35:11.590Z,3.80
2018-06-05T14:37:39.727Z,3.10
2018-06-05T14:40:07.834Z,3.50
2018-06-05T14:42:35.935Z,3.27
2018-06-05T14:45:04.065Z,3.23
2018-06-05T14:47:32.320Z,3.57
2018-06-05T14:50:00.466Z,3.52
2018-06-05T14:52:29.057Z,3.47
2018-06-05T14:54:57.452Z,3.27
2018-06-05T14:57:25.518Z,3.50
2018-06-05T14:59:53.631Z,3.65
2018-06-05T15:02:21.984Z,3.92
2018-06-05T15:04:50.143Z,2.92
2018-06-05T15:07:18.327Z,10.25
2018-06-05T15:09:47.423Z,6.75
2018-06-05T15:12:16.003Z,4.70
2018-06-05T15:14:44.366Z,6.10
2018-06-05T15:17:12.495Z,4.90
2018-06-05T15:19:40.805Z,4.40
2018-06-05T15:22:09.136Z,3.72
2018-06-05T15:27:10.326Z,3.27
2018-06-05T15:29:38.512Z,3.70
2018-06-05T15:32:06.838Z,3.98
2018-06-05T15:34:34.983Z,4.28
2018-06-05T15:37:03.144Z,3.60
2018-06-05T15:39:31.306Z,3.40
2018-06-05T15:42:02.485Z,3.27
2018-06-05T15:44:34.051Z,3.53
2018-06-05T15:47:02.128Z,3.65
2018-06-05T15:49:30.240Z,3.37
2018-06-05T15:51:58.362Z,3.35
2018-06-05T15:54:26.591Z,3.40
2018-06-05T15:56:54.662Z,3.50
2018-06-05T15:59:22.722Z,3.22
2018-06-05T16:01:50.847Z,3.70
2018-06-05T16:04:18.953Z,7.15
2018-06-05T16:06:47.420Z,5.60
2018-06-05T16:09:15.661Z,4.20
2018-06-05T16:11:43.730Z,3.60
2018-06-05T16:14:11.886Z,3.70
2018-06-05T16:16:40.007Z,3.47
2018-06-05T16:19:08.110Z,3.63
2018-06-05T16:21:36.237Z,3.60
2018-06-05T16:24:04.324Z,3.33
2018-06-05T16:26:32.407Z,3.37
2018-06-05T16:29:00.574Z,3.17
2018-06-05T16:31:28.847Z,3.07
2018-06-05T16:33:57.170Z,2.43
2018-06-05T16:36:26.084Z,3.00
2018-06-05T16:38:54.212Z,3.02
2018-06-05T16:41:22.732Z,3.57
2018-06-05T16:43:50.844Z,2.90
2018-06-05T16:46:19.050Z,2.57
2018-06-05T16:48:47.573Z,3.00
2018-06-05T16:51:15.651Z,2.80
2018-06-05T16:53:43.829Z,2.60
2018-06-05T16:56:11.901Z,3.53
2018-06-05T16:58:40.332Z,3.00
2018-06-05T17:01:08.457Z,3.47
2018-06-05T17:03:36.766Z,3.07
2018-06-05T17:06:04.956Z,3.15
2018-06-05T17:08:33.283Z,3.17
2018-06-05T17:11:01.480Z,3.30
2018-06-05T17:13:29.559Z,2.60
2018-06-05T17:15:57.632Z,3.05
2018-06-05T17:18:26.226Z,3.12
2018-06-05T17:20:54.355Z,3.10
2018-06-05T17:23:22.435Z,2.77
2018-06-05T17:25:50.940Z,3.30
2018-06-05T17:28:19.087Z,2.97
2018-06-05T17:30:47.692Z,2.80
2018-06-05T17:33:15.795Z,2.80
2018-06-05T17:35:44.043Z,2.80
2018-06-05T17:38:12.140Z,3.90
2018-06-05T17:40:40.435Z,3.27
2018-06-05T17:43:08.608Z,4.13
2018-06-05T17:45:36.751Z,3.80
2018-06-05T17:48:04.902Z,2.90
2018-06-05T17:50:33.146Z,3.07
2018-06-05T17:53:01.409Z,3.58
2018-06-05T17:55:29.730Z,4.05
2018-06-05T17:57:57.835Z,4.55
2018-06-05T18:00:25.927Z,3.60
2018-06-05T18:02:54.000Z,3.80
2018-06-05T18:05:22.212Z,4.77
2018-06-05T18:07:50.353Z,4.10
2018-06-05T18:10:18.501Z,4.10
2018-06-05T18:12:46.587Z,4.60
2018-06-05T18:15:16.798Z,4.80
2018-06-05T18:17:45.153Z,5.07
2018-06-05T18:20:13.226Z,5.03
2018-06-05T18:22:41.899Z,4.40
2018-06-05T18:25:11.035Z,4.37
2018-06-05T18:27:39.339Z,4.70
2018-06-05T18:30:07.405Z,5.33
2018-06-05T18:32:35.471Z,4.53
2018-06-05T18:35:03.576Z,5.22
2018-06-05T18:37:31.640Z,5.23
2018-06-05T18:39:59.729Z,5.75
2018-06-05T18:42:27.846Z,4.97
2018-06-05T18:44:56.010Z,5.23
2018-06-05T18:47:24.245Z,5.62
2018-06-05T18:49:52.363Z,5.07
2018-06-05T18:52:20.448Z,6.40
2018-06-05T18:54:48.535Z,5.67
2018-06-05T18:57:17.217Z,6.57
2018-06-05T18:59:45.279Z,5.55
2018-06-05T19:02:13.550Z,6.43
2018-06-05T19:04:41.730Z,6.10
2018-06-05T19:07:09.933Z,6.47
2018-06-05T19:09:38.026Z,6.80
2018-06-05T19:12:06.485Z,7.27
2018-06-05T19:14:34.602Z,7.53
2018-06-05T19:17:02.849Z,8.98
2018-06-05T19:19:31.066Z,8.03
2018-06-05T19:21:59.124Z,8.53
2018-06-05T19:24:27.483Z,10.03
2018-06-05T19:26:55.583Z,11.15
2018-06-05T19:29:23.774Z,9.80
2018-06-05T19:31:51.872Z,12.70
2018-06-05T19:34:19.947Z,11.80
2018-06-05T19:36:48.255Z,10.20
2018-06-05T19:39:16.907Z,10.30
2018-06-05T19:41:45.343Z,10.90
2018-06-05T19:44:13.451Z,10.80
2018-06-05T19:46:41.620Z,11.00
2018-06-05T19:49:09.652Z,12.20
2018-06-05T19:51:37.832Z,11.00
2018-06-05T19:54:05.994Z,10.67
2018-06-05T19:56:34.101Z,10.35
2018-06-05T19:59:02.225Z,9.85
2018-06-05T20:01:30.467Z,10.50
2018-06-05T20:03:58.570Z,10.68
2018-06-05T20:06:26.710Z,17.45
2018-06-05T20:08:54.787Z,12.28
2018-06-05T20:11:22.892Z,10.87
2018-06-05T20:13:51.143Z,11.37
2018-06-05T20:16:19.266Z,11.33
2018-06-05T20:18:48.414Z,11.03
2018-06-05T20:21:16.730Z,10.30
2018-06-05T20:23:44.861Z,9.57
2018-06-05T20:26:12.986Z,11.30
2018-06-05T20:28:41.138Z,10.60
2018-06-05T20:31:09.239Z,10.37
2018-06-05T20:33:37.555Z,10.13
2018-06-05T20:36:05.739Z,11.67
2018-06-05T20:38:34.047Z,10.50
2018-06-05T20:41:03.215Z,10.23
2018-06-05T20:43:31.358Z,11.00
2018-06-05T20:45:59.959Z,10.73
2018-06-05T20:48:28.095Z,9.90
2018-06-05T20:50:56.378Z,11.45
2018-06-05T20:53:24.901Z,11.00
2018-06-05T20:55:54.836Z,10.90
2018-06-05T20:58:23.337Z,11.07
2018-06-05T21:00:52.422Z,11.67
2018-06-05T21:03:21.198Z,10.20
2018-06-05T21:05:49.625Z,12.03
2018-06-05T21:08:20.294Z,11.08
2018-06-05T21:10:48.680Z,10.60
2018-06-05T21:13:17.461Z,11.43
2018-06-05T21:15:45.558Z,10.40
2018-06-05T21:18:13.951Z,11.37
2018-06-05T21:20:42.192Z,10.37
2018-06-05T21:23:10.399Z,11.33
2018-06-05T21:25:38.726Z,10.60
2018-06-05T21:28:07.603Z,15.83
2018-06-05T21:30:35.962Z,11.77
2018-06-05T21:33:04.635Z,11.10
2018-06-05T21:35:32.764Z,11.38
2018-06-05T21:38:00.860Z,10.65
2018-06-05T21:40:29.454Z,11.10
2018-06-05T21:42:57.592Z,10.30
2018-06-05T21:45:25.735Z,11.03
2018-06-05T21:47:53.940Z,10.87
2018-06-05T21:50:22.016Z,10.60
2018-06-05T21:52:50.145Z,11.53
2018-06-05T21:55:19.190Z,11.22
2018-06-05T21:57:47.882Z,10.87
2018-06-05T22:00:18.496Z,10.77
2018-06-05T22:02:46.584Z,11.13
2018-06-05T22:05:14.686Z,11.80
2018-06-05T22:07:42.791Z,11.43
2018-06-05T22:10:11.535Z,13.07
2018-06-05T22:12:39.648Z,10.30
2018-06-05T22:15:08.084Z,11.67
2018-06-05T22:17:36.200Z,11.33
2018-06-05T22:20:04.653Z,11.33
2018-06-05T22:22:33.202Z,10.70
2018-06-05T22:25:01.429Z,11.20
2018-06-05T22:27:29.573Z,11.18
2018-06-05T22:29:57.663Z,11.60
2018-06-05T22:32:25.791Z,11.95
2018-06-05T22:34:53.895Z,11.85
2018-06-05T22:37:22.008Z,12.20
2018-06-05T22:39:50.071Z,11.80
2018-06-05T22:42:19.118Z,11.43
2018-06-05T22:44:47.348Z,11.00
2018-06-05T22:47:15.735Z,11.80
2018-06-05T22:49:43.817Z,12.60
2018-06-05T22:52:11.917Z,11.20
2018-06-05T22:54:40.046Z,12.37
2018-06-05T22:57:08.147Z,13.80
2018-06-05T22:59:36.282Z,12.30
2018-06-05T23:02:04.417Z,12.80
2018-06-05T23:04:32.511Z,13.03
2018-06-05T23:07:00.582Z,12.10
2018-06-05T23:09:28.665Z,12.05
2018-06-05T23:11:56.758Z,12.23
2018-06-05T23:14:24.882Z,12.70
2018-06-05T23:16:53.173Z,12.80
2018-06-05T23:19:21.286Z,12.07
2018-06-05T23:21:49.448Z,12.40
2018-06-05T23:24:17.658Z,12.30
2018-06-05T23:26:45.803Z,13.47
2018-06-05T23:29:13.903Z,13.23
2018-06-05T23:31:42.039Z,13.00
2018-06-05T23:34:10.236Z,12.60
2018-06-05T23:36:38.362Z,12.80
2018-06-05T23:39:07.403Z,14.03
2018-06-05T23:41:35.805Z,13.93
2018-06-05T23:44:03.929Z,13.10
2018-06-05T23:46:32.079Z,13.20
2018-06-05T23:49:00.188Z,11.90
2018-06-05T23:51:29.475Z,13.50
2018-06-05T23:53:57.694Z,12.60
2018-06-05T23:56:25.771Z,12.60
2018-06-05T23:58:54.204Z,13.60
